sensor_id;sensor_type;location;lat;lon;timestamp;P1;P2;P0
28647;PMS5003;17137;51.494;-0.262;2023-04-24T00:00:00;21;21;
28647;PMS5003;17137;51.494;-0.262;2023-04-24T00:00:31;21;21;
28647;PMS5003;17137;51.494;-0.262;2023-04-24T00:01:01;21;21;
28647;PMS5003;17137;51.494;-0.262;2023-04-24T00:01:32;21;21;
28647;PMS5003;17137;51.494;-0.262;2023-04-24T00:02:02;21;21;
28647;PMS5003;17137;51.494;-0.262;2023-04-24T00:02:32;21;21;
28647;PMS5003;17137;51.494;-0.262;2023-04-24T00:03:07;21;21;
28647;PMS5003;17137;51.494;-0.262;2023-04-24T00:03:39;21;21;
28647;PMS5003;17137;51.494;-0.262;2023-04-24T00:04:09;22;22;
28647;PMS5003;17137;51.494;-0.262;2023-04-24T00:04:39;22;22;
28647;PMS5003;17137;51.494;-0.262;2023-04-24T00:05:10;22;22;
28647;PMS5003;17137;51.494;-0.262;2023-04-24T00:05:40;30;27;
28647;PMS5003;17137;51.494;-0.262;2023-04-24T00:06:11;30;27;
28647;PMS5003;17137;51.494;-0.262;2023-04-24T00:06:41;30;27;
28647;PMS5003;17137;51.494;-0.262;2023-04-24T00:07:11;30;26;
28647;PMS5003;17137;51.494;-0.262;2023-04-24T00:07:43;30;26;
28647;PMS5003;17137;51.494;-0.262;2023-04-24T00:08:14;30;26;
28647;PMS5003;17137;51.494;-0.262;2023-04-24T00:08:45;29;25;
28647;PMS5003;17137;51.494;-0.262;2023-04-24T00:09:15;29;25;
28647;PMS5003;17137;51.494;-0.262;2023-04-24T00:09:45;29;25;
28647;PMS5003;17137;51.494;-0.262;2023-04-24T00:10:15;32;28;
28647;PMS5003;17137;51.494;-0.262;2023-04-24T00:10:46;32;28;
28647;PMS5003;17137;51.494;-0.262;2023-04-24T00:11:16;32;28;
28647;PMS5003;17137;51.494;-0.262;2023-04-24T00:11:46;31;28;
28647;PMS5003;17137;51.494;-0.262;2023-04-24T00:12:17;30;27;
28647;PMS5003;17137;51.494;-0.262;2023-04-24T00:12:47;30;27;
28647;PMS5003;17137;51.494;-0.262;2023-04-24T00:13:17;30;27;
28647;PMS5003;17137;51.494;-0.262;2023-04-24T00:13:48;28;25;
28647;PMS5003;17137;51.494;-0.262;2023-04-24T00:14:18;29;24;
28647;PMS5003;17137;51.494;-0.262;2023-04-24T00:14:48;29;24;
28647;PMS5003;17137;51.494;-0.262;2023-04-24T00:15:19;30;25;
28647;PMS5003;17137;51.494;-0.262;2023-04-24T00:15:49;31;26;
28647;PMS5003;17137;51.494;-0.262;2023-04-24T00:16:19;31;26;
28647;PMS5003;17137;51.494;-0.262;2023-04-24T00:16:50;31;26;
28647;PMS5003;17137;51.494;-0.262;2023-04-24T00:17:20;28;25;
28647;PMS5003;17137;51.494;-0.262;2023-04-24T00:17:50;28;25;
28647;PMS5003;17137;51.494;-0.262;2023-04-24T00:18:20;28;25;
28647;PMS5003;17137;51.494;-0.262;2023-04-24T00:18:51;30;27;
28647;PMS5003;17137;51.494;-0.262;2023-04-24T00:19:21;32;27;
28647;PMS5003;17137;51.494;-0.262;2023-04-24T00:19:52;31;27;
28647;PMS5003;17137;51.494;-0.262;2023-04-24T00:20:22;30;27;
28647;PMS5003;17137;51.494;-0.262;2023-04-24T00:20:52;31;27;
28647;PMS5003;17137;51.494;-0.262;2023-04-24T00:21:23;33;29;
28647;PMS5003;17137;51.494;-0.262;2023-04-24T00:21:53;26;24;
28647;PMS5003;17137;51.494;-0.262;2023-04-24T00:22:24;26;24;
28647;PMS5003;17137;51.494;-0.262;2023-04-24T00:22:55;26;24;
28647;PMS5003;17137;51.494;-0.262;2023-04-24T00:23:25;27;25;
28647;PMS5003;17137;51.494;-0.262;2023-04-24T00:23:55;27;25;
28647;PMS5003;17137;51.494;-0.262;2023-04-24T00:24:25;27;25;
28647;PMS5003;17137;51.494;-0.262;2023-04-24T00:24:56;25;24;
28647;PMS5003;17137;51.494;-0.262;2023-04-24T00:25:26;25;24;
28647;PMS5003;17137;51.494;-0.262;2023-04-24T00:25:57;25;24;
28647;PMS5003;17137;51.494;-0.262;2023-04-24T00:26:27;27;25;
28647;PMS5003;17137;51.494;-0.262;2023-04-24T00:26:58;29;27;
28647;PMS5003;17137;51.494;-0.262;2023-04-24T00:27:28;30;28;
28647;PMS5003;17137;51.494;-0.262;2023-04-24T00:27:59;30;29;
28647;PMS5003;17137;51.494;-0.262;2023-04-24T00:28:29;32;31;
28647;PMS5003;17137;51.494;-0.262;2023-04-24T00:28:59;31;30;
28647;PMS5003;17137;51.494;-0.262;2023-04-24T00:29:29;31;29;
28647;PMS5003;17137;51.494;-0.262;2023-04-24T00:30:00;27;25;
28647;PMS5003;17137;51.494;-0.262;2023-04-24T00:30:30;27;25;
28647;PMS5003;17137;51.494;-0.262;2023-04-24T00:31:00;27;25;
28647;PMS5003;17137;51.494;-0.262;2023-04-24T00:31:31;27;25;
28647;PMS5003;17137;51.494;-0.262;2023-04-24T00:32:01;27;25;
28647;PMS5003;17137;51.494;-0.262;2023-04-24T00:32:32;25;24;
28647;PMS5003;17137;51.494;-0.262;2023-04-24T00:33:02;25;24;
28647;PMS5003;17137;51.494;-0.262;2023-04-24T00:33:38;25;24;
28647;PMS5003;17137;51.494;-0.262;2023-04-24T00:34:08;24;23;
28647;PMS5003;17137;51.494;-0.262;2023-04-24T00:34:39;24;23;
28647;PMS5003;17137;51.494;-0.262;2023-04-24T00:35:10;23;22;
28647;PMS5003;17137;51.494;-0.262;2023-04-24T00:35:40;22;21;
28647;PMS5003;17137;51.494;-0.262;2023-04-24T00:36:10;22;21;
28647;PMS5003;17137;51.494;-0.262;2023-04-24T00:36:40;22;21;
28647;PMS5003;17137;51.494;-0.262;2023-04-24T00:37:11;23;22;
28647;PMS5003;17137;51.494;-0.262;2023-04-24T00:37:41;23;22;
28647;PMS5003;17137;51.494;-0.262;2023-04-24T00:38:11;24;24;
28647;PMS5003;17137;51.494;-0.262;2023-04-24T00:38:42;24;24;
28647;PMS5003;17137;51.494;-0.262;2023-04-24T00:39:12;24;24;
28647;PMS5003;17137;51.494;-0.262;2023-04-24T00:39:42;24;24;
28647;PMS5003;17137;51.494;-0.262;2023-04-24T00:40:12;27;27;
28647;PMS5003;17137;51.494;-0.262;2023-04-24T00:40:43;26;26;
28647;PMS5003;17137;51.494;-0.262;2023-04-24T00:41:13;28;28;
28647;PMS5003;17137;51.494;-0.262;2023-04-24T00:41:43;29;29;
28647;PMS5003;17137;51.494;-0.262;2023-04-24T00:42:14;31;29;
28647;PMS5003;17137;51.494;-0.262;2023-04-24T00:42:44;32;30;
28647;PMS5003;17137;51.494;-0.262;2023-04-24T00:43:15;33;31;
28647;PMS5003;17137;51.494;-0.262;2023-04-24T00:43:45;33;31;
28647;PMS5003;17137;51.494;-0.262;2023-04-24T00:44:16;31;29;
28647;PMS5003;17137;51.494;-0.262;2023-04-24T00:44:46;33;30;
28647;PMS5003;17137;51.494;-0.262;2023-04-24T00:45:17;31;28;
28647;PMS5003;17137;51.494;-0.262;2023-04-24T00:45:47;31;28;
28647;PMS5003;17137;51.494;-0.262;2023-04-24T00:46:18;26;23;
28647;PMS5003;17137;51.494;-0.262;2023-04-24T00:46:49;26;23;
28647;PMS5003;17137;51.494;-0.262;2023-04-24T00:47:20;26;23;
28647;PMS5003;17137;51.494;-0.262;2023-04-24T00:47:52;26;23;
28647;PMS5003;17137;51.494;-0.262;2023-04-24T00:48:23;24;22;
28647;PMS5003;17137;51.494;-0.262;2023-04-24T00:48:54;24;22;
28647;PMS5003;17137;51.494;-0.262;2023-04-24T00:49:25;24;22;
28647;PMS5003;17137;51.494;-0.262;2023-04-24T00:49:56;24;22;
28647;PMS5003;17137;51.494;-0.262;2023-04-24T00:50:26;23;21;
28647;PMS5003;17137;51.494;-0.262;2023-04-24T00:50:56;23;21;
28647;PMS5003;17137;51.494;-0.262;2023-04-24T00:51:27;23;20;
28647;PMS5003;17137;51.494;-0.262;2023-04-24T00:51:57;24;21;
28647;PMS5003;17137;51.494;-0.262;2023-04-24T00:52:28;24;21;
28647;PMS5003;17137;51.494;-0.262;2023-04-24T00:52:58;21;20;
28647;PMS5003;17137;51.494;-0.262;2023-04-24T00:53:28;21;20;
28647;PMS5003;17137;51.494;-0.262;2023-04-24T00:53:59;21;20;
28647;PMS5003;17137;51.494;-0.262;2023-04-24T00:54:30;22;21;
28647;PMS5003;17137;51.494;-0.262;2023-04-24T00:55:00;22;21;
28647;PMS5003;17137;51.494;-0.262;2023-04-24T00:55:30;22;21;
28647;PMS5003;17137;51.494;-0.262;2023-04-24T00:56:01;20;20;
28647;PMS5003;17137;51.494;-0.262;2023-04-24T00:56:32;21;21;
28647;PMS5003;17137;51.494;-0.262;2023-04-24T00:57:02;21;21;
28647;PMS5003;17137;51.494;-0.262;2023-04-24T00:57:34;22;22;
28647;PMS5003;17137;51.494;-0.262;2023-04-24T00:58:04;23;22;
28647;PMS5003;17137;51.494;-0.262;2023-04-24T00:58:34;24;22;
28647;PMS5003;17137;51.494;-0.262;2023-04-24T00:59:05;24;22;
28647;PMS5003;17137;51.494;-0.262;2023-04-24T00:59:35;24;22;
28647;PMS5003;17137;51.494;-0.262;2023-04-24T01:00:07;24;23;
28647;PMS5003;17137;51.494;-0.262;2023-04-24T01:00:38;25;23;
28647;PMS5003;17137;51.494;-0.262;2023-04-24T01:01:08;26;24;
28647;PMS5003;17137;51.494;-0.262;2023-04-24T01:01:40;26;23;
28647;PMS5003;17137;51.494;-0.262;2023-04-24T01:02:10;26;23;
28647;PMS5003;17137;51.494;-0.262;2023-04-24T01:02:41;19;19;
28647;PMS5003;17137;51.494;-0.262;2023-04-24T01:03:13;19;19;
28647;PMS5003;17137;51.494;-0.262;2023-04-24T01:03:44;19;19;
28647;PMS5003;17137;51.494;-0.262;2023-04-24T01:04:15;19;19;
28647;PMS5003;17137;51.494;-0.262;2023-04-24T01:04:47;19;19;
28647;PMS5003;17137;51.494;-0.262;2023-04-24T01:05:18;19;19;
28647;PMS5003;17137;51.494;-0.262;2023-04-24T01:05:49;19;19;
28647;PMS5003;17137;51.494;-0.262;2023-04-24T01:06:20;20;20;
28647;PMS5003;17137;51.494;-0.262;2023-04-24T01:06:51;20;20;
28647;PMS5003;17137;51.494;-0.262;2023-04-24T01:07:22;20;20;
28647;PMS5003;17137;51.494;-0.262;2023-04-24T01:07:52;20;20;
28647;PMS5003;17137;51.494;-0.262;2023-04-24T01:08:23;20;20;
28647;PMS5003;17137;51.494;-0.262;2023-04-24T01:08:54;20;20;
28647;PMS5003;17137;51.494;-0.262;2023-04-24T01:09:24;21;21;
28647;PMS5003;17137;51.494;-0.262;2023-04-24T01:09:55;21;21;
28647;PMS5003;17137;51.494;-0.262;2023-04-24T01:10:26;21;21;
28647;PMS5003;17137;51.494;-0.262;2023-04-24T01:10:59;33;27;
28647;PMS5003;17137;51.494;-0.262;2023-04-24T01:11:32;33;27;
28647;PMS5003;17137;51.494;-0.262;2023-04-24T01:12:03;32;26;
28647;PMS5003;17137;51.494;-0.262;2023-04-24T01:12:33;32;26;
28647;PMS5003;17137;51.494;-0.262;2023-04-24T01:13:04;32;26;
28647;PMS5003;17137;51.494;-0.262;2023-04-24T01:13:34;32;26;
28647;PMS5003;17137;51.494;-0.262;2023-04-24T01:14:05;33;28;
28647;PMS5003;17137;51.494;-0.262;2023-04-24T01:14:36;33;28;
28647;PMS5003;17137;51.494;-0.262;2023-04-24T01:15:08;33;28;
28647;PMS5003;17137;51.494;-0.262;2023-04-24T01:15:39;31;25;
28647;PMS5003;17137;51.494;-0.262;2023-04-24T01:16:09;31;25;
28647;PMS5003;17137;51.494;-0.262;2023-04-24T01:16:39;31;25;
28647;PMS5003;17137;51.494;-0.262;2023-04-24T01:17:10;30;25;
28647;PMS5003;17137;51.494;-0.262;2023-04-24T01:17:40;31;26;
28647;PMS5003;17137;51.494;-0.262;2023-04-24T01:18:11;31;26;
28647;PMS5003;17137;51.494;-0.262;2023-04-24T01:18:41;29;25;
28647;PMS5003;17137;51.494;-0.262;2023-04-24T01:19:11;30;29;
28647;PMS5003;17137;51.494;-0.262;2023-04-24T01:19:44;31;29;
28647;PMS5003;17137;51.494;-0.262;2023-04-24T01:20:14;31;29;
28647;PMS5003;17137;51.494;-0.262;2023-04-24T01:20:46;31;29;
28647;PMS5003;17137;51.494;-0.262;2023-04-24T01:21:20;33;28;
28647;PMS5003;17137;51.494;-0.262;2023-04-24T01:21:53;33;28;
28647;PMS5003;17137;51.494;-0.262;2023-04-24T01:22:27;33;28;
28647;PMS5003;17137;51.494;-0.262;2023-04-24T01:22:58;32;28;
28647;PMS5003;17137;51.494;-0.262;2023-04-24T01:23:28;32;28;
28647;PMS5003;17137;51.494;-0.262;2023-04-24T01:23:58;32;28;
28647;PMS5003;17137;51.494;-0.262;2023-04-24T01:24:29;32;28;
28647;PMS5003;17137;51.494;-0.262;2023-04-24T01:25:00;32;28;
28647;PMS5003;17137;51.494;-0.262;2023-04-24T01:25:30;32;28;
28647;PMS5003;17137;51.494;-0.262;2023-04-24T01:26:01;30;26;
28647;PMS5003;17137;51.494;-0.262;2023-04-24T01:26:32;30;26;
28647;PMS5003;17137;51.494;-0.262;2023-04-24T01:27:03;30;26;
28647;PMS5003;17137;51.494;-0.262;2023-04-24T01:27:33;29;29;
28647;PMS5003;17137;51.494;-0.262;2023-04-24T01:28:04;30;29;
28647;PMS5003;17137;51.494;-0.262;2023-04-24T01:28:34;30;29;
28647;PMS5003;17137;51.494;-0.262;2023-04-24T01:29:05;30;29;
28647;PMS5003;17137;51.494;-0.262;2023-04-24T01:29:35;29;28;
28647;PMS5003;17137;51.494;-0.262;2023-04-24T01:30:07;29;28;
28647;PMS5003;17137;51.494;-0.262;2023-04-24T01:30:38;29;28;
28647;PMS5003;17137;51.494;-0.262;2023-04-24T01:31:09;27;26;
28647;PMS5003;17137;51.494;-0.262;2023-04-24T01:31:39;27;26;
28647;PMS5003;17137;51.494;-0.262;2023-04-24T01:32:10;27;26;
28647;PMS5003;17137;51.494;-0.262;2023-04-24T01:32:40;27;26;
28647;PMS5003;17137;51.494;-0.262;2023-04-24T01:33:12;27;26;
28647;PMS5003;17137;51.494;-0.262;2023-04-24T01:33:43;27;26;
28647;PMS5003;17137;51.494;-0.262;2023-04-24T01:34:13;27;26;
28647;PMS5003;17137;51.494;-0.262;2023-04-24T01:34:44;27;26;
28647;PMS5003;17137;51.494;-0.262;2023-04-24T01:35:16;27;26;
28647;PMS5003;17137;51.494;-0.262;2023-04-24T01:35:47;28;27;
28647;PMS5003;17137;51.494;-0.262;2023-04-24T01:36:18;28;27;
28647;PMS5003;17137;51.494;-0.262;2023-04-24T01:36:50;29;28;
28647;PMS5003;17137;51.494;-0.262;2023-04-24T01:37:20;29;28;
28647;PMS5003;17137;51.494;-0.262;2023-04-24T01:37:51;29;28;
28647;PMS5003;17137;51.494;-0.262;2023-04-24T01:38:21;29;27;
28647;PMS5003;17137;51.494;-0.262;2023-04-24T01:38:56;29;27;
28647;PMS5003;17137;51.494;-0.262;2023-04-24T01:39:27;29;27;
28647;PMS5003;17137;51.494;-0.262;2023-04-24T01:39:58;30;28;
28647;PMS5003;17137;51.494;-0.262;2023-04-24T01:40:28;30;28;
28647;PMS5003;17137;51.494;-0.262;2023-04-24T01:40:59;30;28;
28647;PMS5003;17137;51.494;-0.262;2023-04-24T01:41:29;30;29;
28647;PMS5003;17137;51.494;-0.262;2023-04-24T01:42:00;30;29;
28647;PMS5003;17137;51.494;-0.262;2023-04-24T01:42:31;30;29;
28647;PMS5003;17137;51.494;-0.262;2023-04-24T01:43:02;30;28;
28647;PMS5003;17137;51.494;-0.262;2023-04-24T01:44:01;23;20;
28647;PMS5003;17137;51.494;-0.262;2023-04-24T01:44:33;23;20;
28647;PMS5003;17137;51.494;-0.262;2023-04-24T01:45:04;23;20;
28647;PMS5003;17137;51.494;-0.262;2023-04-24T01:45:36;23;20;
28647;PMS5003;17137;51.494;-0.262;2023-04-24T01:46:06;22;20;
28647;PMS5003;17137;51.494;-0.262;2023-04-24T01:46:36;22;20;
28647;PMS5003;17137;51.494;-0.262;2023-04-24T01:47:07;22;20;
28647;PMS5003;17137;51.494;-0.262;2023-04-24T01:47:43;23;20;
28647;PMS5003;17137;51.494;-0.262;2023-04-24T01:48:14;23;20;
28647;PMS5003;17137;51.494;-0.262;2023-04-24T01:48:45;23;20;
28647;PMS5003;17137;51.494;-0.262;2023-04-24T01:49:15;22;20;
28647;PMS5003;17137;51.494;-0.262;2023-04-24T01:49:51;22;20;
28647;PMS5003;17137;51.494;-0.262;2023-04-24T01:50:21;22;20;
28647;PMS5003;17137;51.494;-0.262;2023-04-24T01:50:52;21;20;
28647;PMS5003;17137;51.494;-0.262;2023-04-24T01:51:22;21;20;
28647;PMS5003;17137;51.494;-0.262;2023-04-24T01:51:52;26;24;
28647;PMS5003;17137;51.494;-0.262;2023-04-24T01:52:23;27;25;
28647;PMS5003;17137;51.494;-0.262;2023-04-24T01:52:53;28;25;
28647;PMS5003;17137;51.494;-0.262;2023-04-24T01:53:24;29;25;
28647;PMS5003;17137;51.494;-0.262;2023-04-24T01:53:54;30;26;
28647;PMS5003;17137;51.494;-0.262;2023-04-24T01:54:24;30;26;
28647;PMS5003;17137;51.494;-0.262;2023-04-24T01:54:54;30;26;
28647;PMS5003;17137;51.494;-0.262;2023-04-24T01:55:25;30;26;
28647;PMS5003;17137;51.494;-0.262;2023-04-24T01:55:56;30;26;
28647;PMS5003;17137;51.494;-0.262;2023-04-24T01:56:27;29;26;
28647;PMS5003;17137;51.494;-0.262;2023-04-24T01:56:59;29;26;
28647;PMS5003;17137;51.494;-0.262;2023-04-24T01:57:29;29;26;
28647;PMS5003;17137;51.494;-0.262;2023-04-24T01:58:00;29;26;
28647;PMS5003;17137;51.494;-0.262;2023-04-24T01:58:31;29;26;
28647;PMS5003;17137;51.494;-0.262;2023-04-24T01:59:02;29;26;
28647;PMS5003;17137;51.494;-0.262;2023-04-24T01:59:33;28;26;
28647;PMS5003;17137;51.494;-0.262;2023-04-24T02:00:04;23;21;
28647;PMS5003;17137;51.494;-0.262;2023-04-24T02:00:35;23;21;
28647;PMS5003;17137;51.494;-0.262;2023-04-24T02:01:06;24;22;
28647;PMS5003;17137;51.494;-0.262;2023-04-24T02:01:36;24;22;
28647;PMS5003;17137;51.494;-0.262;2023-04-24T02:02:07;24;22;
28647;PMS5003;17137;51.494;-0.262;2023-04-24T02:02:39;24;23;
28647;PMS5003;17137;51.494;-0.262;2023-04-24T02:03:10;24;23;
28647;PMS5003;17137;51.494;-0.262;2023-04-24T02:03:40;24;23;
28647;PMS5003;17137;51.494;-0.262;2023-04-24T02:04:10;26;23;
28647;PMS5003;17137;51.494;-0.262;2023-04-24T02:04:41;26;23;
28647;PMS5003;17137;51.494;-0.262;2023-04-24T02:05:11;26;23;
28647;PMS5003;17137;51.494;-0.262;2023-04-24T02:05:43;27;25;
28647;PMS5003;17137;51.494;-0.262;2023-04-24T02:06:13;27;25;
28647;PMS5003;17137;51.494;-0.262;2023-04-24T02:06:44;27;25;
28647;PMS5003;17137;51.494;-0.262;2023-04-24T02:07:14;27;24;
28647;PMS5003;17137;51.494;-0.262;2023-04-24T02:07:44;27;24;
28647;PMS5003;17137;51.494;-0.262;2023-04-24T02:08:14;25;25;
28647;PMS5003;17137;51.494;-0.262;2023-04-24T02:08:45;25;25;
28647;PMS5003;17137;51.494;-0.262;2023-04-24T02:09:15;25;25;
28647;PMS5003;17137;51.494;-0.262;2023-04-24T02:09:45;25;24;
28647;PMS5003;17137;51.494;-0.262;2023-04-24T02:10:15;25;24;
28647;PMS5003;17137;51.494;-0.262;2023-04-24T02:10:46;25;24;
28647;PMS5003;17137;51.494;-0.262;2023-04-24T02:11:16;26;25;
28647;PMS5003;17137;51.494;-0.262;2023-04-24T02:11:46;26;25;
28647;PMS5003;17137;51.494;-0.262;2023-04-24T02:12:17;26;25;
28647;PMS5003;17137;51.494;-0.262;2023-04-24T02:12:47;25;25;
28647;PMS5003;17137;51.494;-0.262;2023-04-24T02:13:18;25;25;
28647;PMS5003;17137;51.494;-0.262;2023-04-24T02:13:48;25;25;
28647;PMS5003;17137;51.494;-0.262;2023-04-24T02:14:18;27;27;
28647;PMS5003;17137;51.494;-0.262;2023-04-24T02:14:49;27;27;
28647;PMS5003;17137;51.494;-0.262;2023-04-24T02:15:19;27;27;
28647;PMS5003;17137;51.494;-0.262;2023-04-24T02:15:49;27;27;
28647;PMS5003;17137;51.494;-0.262;2023-04-24T02:16:20;32;31;
28647;PMS5003;17137;51.494;-0.262;2023-04-24T02:16:51;32;31;
28647;PMS5003;17137;51.494;-0.262;2023-04-24T02:17:21;34;32;
28647;PMS5003;17137;51.494;-0.262;2023-04-24T02:17:51;32;30;
28647;PMS5003;17137;51.494;-0.262;2023-04-24T02:18:21;31;30;
28647;PMS5003;17137;51.494;-0.262;2023-04-24T02:18:52;31;30;
28647;PMS5003;17137;51.494;-0.262;2023-04-24T02:19:22;31;30;
28647;PMS5003;17137;51.494;-0.262;2023-04-24T02:19:52;31;30;
28647;PMS5003;17137;51.494;-0.262;2023-04-24T02:20:23;29;27;
28647;PMS5003;17137;51.494;-0.262;2023-04-24T02:20:53;30;27;
28647;PMS5003;17137;51.494;-0.262;2023-04-24T02:21:23;30;27;
28647;PMS5003;17137;51.494;-0.262;2023-04-24T02:21:54;29;27;
28647;PMS5003;17137;51.494;-0.262;2023-04-24T02:22:24;30;27;
28647;PMS5003;17137;51.494;-0.262;2023-04-24T02:22:54;32;30;
28647;PMS5003;17137;51.494;-0.262;2023-04-24T02:23:25;32;30;
28647;PMS5003;17137;51.494;-0.262;2023-04-24T02:23:55;35;31;
28647;PMS5003;17137;51.494;-0.262;2023-04-24T02:24:25;32;31;
28647;PMS5003;17137;51.494;-0.262;2023-04-24T02:24:55;36;31;
28647;PMS5003;17137;51.494;-0.262;2023-04-24T02:25:26;38;32;
28647;PMS5003;17137;51.494;-0.262;2023-04-24T02:25:56;36;30;
28647;PMS5003;17137;51.494;-0.262;2023-04-24T02:26:26;36;31;
28647;PMS5003;17137;51.494;-0.262;2023-04-24T02:26:57;37;31;
28647;PMS5003;17137;51.494;-0.262;2023-04-24T02:27:27;37;32;
28647;PMS5003;17137;51.494;-0.262;2023-04-24T02:27:58;37;32;
28647;PMS5003;17137;51.494;-0.262;2023-04-24T02:28:28;37;32;
28647;PMS5003;17137;51.494;-0.262;2023-04-24T02:28:58;40;36;
28647;PMS5003;17137;51.494;-0.262;2023-04-24T02:29:29;39;35;
28647;PMS5003;17137;51.494;-0.262;2023-04-24T02:29:59;37;36;
28647;PMS5003;17137;51.494;-0.262;2023-04-24T02:30:29;37;36;
28647;PMS5003;17137;51.494;-0.262;2023-04-24T02:31:00;37;36;
28647;PMS5003;17137;51.494;-0.262;2023-04-24T02:31:30;35;35;
28647;PMS5003;17137;51.494;-0.262;2023-04-24T02:32:00;35;35;
28647;PMS5003;17137;51.494;-0.262;2023-04-24T02:32:31;30;28;
28647;PMS5003;17137;51.494;-0.262;2023-04-24T02:33:02;30;28;
28647;PMS5003;17137;51.494;-0.262;2023-04-24T02:33:32;29;28;
28647;PMS5003;17137;51.494;-0.262;2023-04-24T02:34:02;29;28;
28647;PMS5003;17137;51.494;-0.262;2023-04-24T02:34:33;29;28;
28647;PMS5003;17137;51.494;-0.262;2023-04-24T02:35:03;29;27;
28647;PMS5003;17137;51.494;-0.262;2023-04-24T02:35:34;29;27;
28647;PMS5003;17137;51.494;-0.262;2023-04-24T02:36:04;29;27;
28647;PMS5003;17137;51.494;-0.262;2023-04-24T02:36:35;29;27;
28647;PMS5003;17137;51.494;-0.262;2023-04-24T02:37:05;29;27;
28647;PMS5003;17137;51.494;-0.262;2023-04-24T02:37:36;29;27;
28647;PMS5003;17137;51.494;-0.262;2023-04-24T02:38:06;30;28;
28647;PMS5003;17137;51.494;-0.262;2023-04-24T02:38:36;30;28;
28647;PMS5003;17137;51.494;-0.262;2023-04-24T02:39:07;30;28;
28647;PMS5003;17137;51.494;-0.262;2023-04-24T02:39:37;29;28;
28647;PMS5003;17137;51.494;-0.262;2023-04-24T02:40:08;29;28;
28647;PMS5003;17137;51.494;-0.262;2023-04-24T02:40:39;37;34;
28647;PMS5003;17137;51.494;-0.262;2023-04-24T02:41:09;37;35;
28647;PMS5003;17137;51.494;-0.262;2023-04-24T02:41:39;39;36;
28647;PMS5003;17137;51.494;-0.262;2023-04-24T02:42:09;41;39;
28647;PMS5003;17137;51.494;-0.262;2023-04-24T02:42:40;42;39;
28647;PMS5003;17137;51.494;-0.262;2023-04-24T02:43:10;42;37;
28647;PMS5003;17137;51.494;-0.262;2023-04-24T02:43:40;40;37;
28647;PMS5003;17137;51.494;-0.262;2023-04-24T02:44:11;40;37;
28647;PMS5003;17137;51.494;-0.262;2023-04-24T02:44:41;40;37;
28647;PMS5003;17137;51.494;-0.262;2023-04-24T02:45:11;40;37;
28647;PMS5003;17137;51.494;-0.262;2023-04-24T02:45:42;39;36;
28647;PMS5003;17137;51.494;-0.262;2023-04-24T02:46:12;39;36;
28647;PMS5003;17137;51.494;-0.262;2023-04-24T02:46:42;39;36;
28647;PMS5003;17137;51.494;-0.262;2023-04-24T02:47:13;37;34;
28647;PMS5003;17137;51.494;-0.262;2023-04-24T02:47:43;37;34;
28647;PMS5003;17137;51.494;-0.262;2023-04-24T02:48:14;37;34;
28647;PMS5003;17137;51.494;-0.262;2023-04-24T02:48:44;31;28;
28647;PMS5003;17137;51.494;-0.262;2023-04-24T02:49:14;33;28;
28647;PMS5003;17137;51.494;-0.262;2023-04-24T02:49:45;31;28;
28647;PMS5003;17137;51.494;-0.262;2023-04-24T02:50:15;32;30;
28647;PMS5003;17137;51.494;-0.262;2023-04-24T02:50:45;34;32;
28647;PMS5003;17137;51.494;-0.262;2023-04-24T02:51:16;35;33;
28647;PMS5003;17137;51.494;-0.262;2023-04-24T02:51:46;37;32;
28647;PMS5003;17137;51.494;-0.262;2023-04-24T02:52:17;36;31;
28647;PMS5003;17137;51.494;-0.262;2023-04-24T02:52:47;37;32;
28647;PMS5003;17137;51.494;-0.262;2023-04-24T02:53:17;34;30;
28647;PMS5003;17137;51.494;-0.262;2023-04-24T02:53:48;36;31;
28647;PMS5003;17137;51.494;-0.262;2023-04-24T02:54:18;34;31;
28647;PMS5003;17137;51.494;-0.262;2023-04-24T02:54:48;34;31;
28647;PMS5003;17137;51.494;-0.262;2023-04-24T02:55:24;34;31;
28647;PMS5003;17137;51.494;-0.262;2023-04-24T02:55:54;34;31;
28647;PMS5003;17137;51.494;-0.262;2023-04-24T02:56:24;34;31;
28647;PMS5003;17137;51.494;-0.262;2023-04-24T02:56:55;28;27;
28647;PMS5003;17137;51.494;-0.262;2023-04-24T02:57:25;29;27;
28647;PMS5003;17137;51.494;-0.262;2023-04-24T02:57:55;29;27;
28647;PMS5003;17137;51.494;-0.262;2023-04-24T02:58:26;29;27;
28647;PMS5003;17137;51.494;-0.262;2023-04-24T02:58:56;28;27;
28647;PMS5003;17137;51.494;-0.262;2023-04-24T02:59:26;28;27;
28647;PMS5003;17137;51.494;-0.262;2023-04-24T02:59:57;28;27;
28647;PMS5003;17137;51.494;-0.262;2023-04-24T03:00:27;30;29;
28647;PMS5003;17137;51.494;-0.262;2023-04-24T03:00:58;31;30;
28647;PMS5003;17137;51.494;-0.262;2023-04-24T03:01:28;35;32;
28647;PMS5003;17137;51.494;-0.262;2023-04-24T03:01:59;33;32;
28647;PMS5003;17137;51.494;-0.262;2023-04-24T03:02:29;33;32;
28647;PMS5003;17137;51.494;-0.262;2023-04-24T03:02:59;34;32;
28647;PMS5003;17137;51.494;-0.262;2023-04-24T03:03:29;34;32;
28647;PMS5003;17137;51.494;-0.262;2023-04-24T03:04:00;34;32;
28647;PMS5003;17137;51.494;-0.262;2023-04-24T03:04:31;33;32;
28647;PMS5003;17137;51.494;-0.262;2023-04-24T03:05:01;32;31;
28647;PMS5003;17137;51.494;-0.262;2023-04-24T03:05:31;31;30;
28647;PMS5003;17137;51.494;-0.262;2023-04-24T03:06:02;31;30;
28647;PMS5003;17137;51.494;-0.262;2023-04-24T03:06:32;31;30;
28647;PMS5003;17137;51.494;-0.262;2023-04-24T03:07:03;31;30;
28647;PMS5003;17137;51.494;-0.262;2023-04-24T03:07:33;31;30;
28647;PMS5003;17137;51.494;-0.262;2023-04-24T03:08:03;31;30;
28647;PMS5003;17137;51.494;-0.262;2023-04-24T03:08:38;31;30;
28647;PMS5003;17137;51.494;-0.262;2023-04-24T03:09:09;31;30;
28647;PMS5003;17137;51.494;-0.262;2023-04-24T03:09:44;31;30;
28647;PMS5003;17137;51.494;-0.262;2023-04-24T03:10:14;31;30;
28647;PMS5003;17137;51.494;-0.262;2023-04-24T03:10:45;31;30;
28647;PMS5003;17137;51.494;-0.262;2023-04-24T03:11:15;31;30;
28647;PMS5003;17137;51.494;-0.262;2023-04-24T03:11:45;30;29;
28647;PMS5003;17137;51.494;-0.262;2023-04-24T03:12:16;30;29;
28647;PMS5003;17137;51.494;-0.262;2023-04-24T03:12:46;30;29;
28647;PMS5003;17137;51.494;-0.262;2023-04-24T03:13:16;28;27;
28647;PMS5003;17137;51.494;-0.262;2023-04-24T03:13:47;28;27;
28647;PMS5003;17137;51.494;-0.262;2023-04-24T03:14:17;28;27;
28647;PMS5003;17137;51.494;-0.262;2023-04-24T03:14:47;26;26;
28647;PMS5003;17137;51.494;-0.262;2023-04-24T03:15:17;26;26;
28647;PMS5003;17137;51.494;-0.262;2023-04-24T03:15:48;26;26;
28647;PMS5003;17137;51.494;-0.262;2023-04-24T03:16:18;26;26;
28647;PMS5003;17137;51.494;-0.262;2023-04-24T03:16:48;26;26;
28647;PMS5003;17137;51.494;-0.262;2023-04-24T03:17:19;26;26;
28647;PMS5003;17137;51.494;-0.262;2023-04-24T03:17:49;26;26;
28647;PMS5003;17137;51.494;-0.262;2023-04-24T03:18:19;26;26;
28647;PMS5003;17137;51.494;-0.262;2023-04-24T03:18:50;26;26;
28647;PMS5003;17137;51.494;-0.262;2023-04-24T03:19:20;26;26;
28647;PMS5003;17137;51.494;-0.262;2023-04-24T03:19:50;26;26;
28647;PMS5003;17137;51.494;-0.262;2023-04-24T03:20:21;26;26;